Salisbury, Maryland
Current Conditions -  °F | °C
As of 9:54 AM on Monday 22 Dec 2014 (Local Time) from KSBY Reporting Station
Light Rain Light Rain  
Wind Chill: 36°   Ceiling: 4600
Heat Index: 40°   Visibility: 9mi
Dew Point: 32°   Wind: 6mph
Humidity: 73%   Direction: 50°NE
Pressure: 30.28"   Gusts: NA
Location:  38.37°N, 75.59°W
Report Text: KSBY 221454Z 05005KT 9SM -RA OVC046 04/00 A3028 RMK AO2 RAB51 SLP255 P0000 60000 T00440000 53003
Loading
Personal Weather Stations






























Interactive Weather Map New forecast layout! Learn more

10-Day Weather Forecast

Advertisements
Track Severe Weather on mobile